createdAt,value
2019-06-07T00:01:21.647Z,37.50
2019-06-07T00:03:51.236Z,37.90
2019-06-07T00:06:25.016Z,38.10
2019-06-07T00:08:52.017Z,38.70
2019-06-07T00:11:22.046Z,37.80
2019-06-07T00:13:51.606Z,38.50
2019-06-07T00:16:23.193Z,38.50
2019-06-07T00:18:52.451Z,38.30
2019-06-07T00:22:06.606Z,38.30
2019-06-07T00:23:53.746Z,38.90
2019-06-07T00:26:23.651Z,38.90
2019-06-07T00:28:53.501Z,39.70
2019-06-07T00:31:24.752Z,39.20
2019-06-07T00:33:54.421Z,39.20
2019-06-07T00:36:24.365Z,38.90
2019-06-07T00:38:54.182Z,38.30
2019-06-07T00:41:24.290Z,38.80
2019-06-07T00:43:53.834Z,39.30
2019-06-07T00:46:25.320Z,40.40
2019-06-07T00:48:54.704Z,41.90
2019-06-07T00:51:24.256Z,42.60
2019-06-07T00:53:53.939Z,42.40
2019-06-07T00:56:23.754Z,42.10
2019-06-07T00:59:10.168Z,41.30
2019-06-07T01:01:25.600Z,42.60
2019-06-07T01:03:55.511Z,44.00
2019-06-07T01:06:25.151Z,45.60
2019-06-07T01:08:54.950Z,45.90
2019-06-07T01:11:26.150Z,45.50
2019-06-07T01:13:55.874Z,44.40
2019-06-07T01:16:26.429Z,45.00
2019-06-07T01:18:56.260Z,43.80
2019-06-07T01:21:29.686Z,44.60
2019-06-07T01:24:11.598Z,44.10
2019-06-07T01:26:30.418Z,44.70
2019-06-07T01:29:00.188Z,45.00
2019-06-07T01:31:31.525Z,44.50
2019-06-07T01:34:01.244Z,44.90
2019-06-07T01:36:31.296Z,44.60
2019-06-07T01:39:01.139Z,43.40
2019-06-07T01:41:31.124Z,43.80
2019-06-07T01:44:01.191Z,43.20
2019-06-07T01:46:30.857Z,43.00
2019-06-07T01:49:00.747Z,43.80
2019-06-07T01:51:30.932Z,44.40
2019-06-07T01:54:48.802Z,45.20
2019-06-07T01:56:32.323Z,45.80
2019-06-07T01:59:01.896Z,45.70
2019-06-07T02:01:35.369Z,45.70
2019-06-07T02:04:03.385Z,45.50
2019-06-07T02:06:33.072Z,46.20
2019-06-07T02:09:03.133Z,46.80
2019-06-07T02:11:33.683Z,47.50
2019-06-07T02:14:03.539Z,47.00
2019-06-07T02:16:33.192Z,47.50
2019-06-07T02:19:03.975Z,47.80
2019-06-07T02:21:34.529Z,47.80
2019-06-07T02:24:04.350Z,47.60
2019-06-07T02:26:34.263Z,47.90
2019-06-07T02:29:04.419Z,47.70
2019-06-07T02:31:39.047Z,46.20
2019-06-07T02:34:05.953Z,46.00
2019-06-07T02:36:41.269Z,45.00
2019-06-07T02:39:08.101Z,45.70
2019-06-07T02:41:40.028Z,45.90
2019-06-07T02:44:08.991Z,45.50
2019-06-07T02:46:47.037Z,45.30
2019-06-07T02:49:11.129Z,45.20
2019-06-07T02:51:41.821Z,45.00
2019-06-07T02:54:11.587Z,44.40
2019-06-07T02:56:56.348Z,44.50
2019-06-07T02:59:12.651Z,45.10
2019-06-07T03:01:42.923Z,45.10
2019-06-07T03:04:14.208Z,45.00
2019-06-07T03:06:44.313Z,45.10
2019-06-07T03:09:13.960Z,44.80
2019-06-07T03:11:43.878Z,44.40
2019-06-07T03:14:14.202Z,44.90
2019-06-07T03:16:52.955Z,44.80
2019-06-07T03:19:34.655Z,44.60
2019-06-07T03:22:05.062Z,44.20
2019-06-07T03:24:41.283Z,43.80
2019-06-07T03:27:34.168Z,44.40
2019-06-07T03:29:41.222Z,45.50
2019-06-07T03:32:10.949Z,46.30
2019-06-07T03:34:43.503Z,46.80
2019-06-07T03:37:11.679Z,47.10
2019-06-07T03:39:41.548Z,47.60
2019-06-07T03:42:11.344Z,47.60
2019-06-07T03:44:41.746Z,47.90
2019-06-07T03:47:11.626Z,47.80
2019-06-07T03:49:42.610Z,47.70
2019-06-07T03:52:12.385Z,48.10
2019-06-07T03:54:42.279Z,48.60
2019-06-07T03:57:11.829Z,48.40
2019-06-07T03:59:41.707Z,48.40
2019-06-07T04:02:11.520Z,48.30
2019-06-07T04:04:41.377Z,48.30
2019-06-07T04:07:11.180Z,48.20
2019-06-07T04:09:43.026Z,48.20
2019-06-07T04:12:12.479Z,48.00
2019-06-07T04:14:42.850Z,48.10
2019-06-07T04:17:12.882Z,48.10
2019-06-07T04:19:43.528Z,47.80
2019-06-07T04:22:13.337Z,47.60
2019-06-07T04:24:42.875Z,46.90
2019-06-07T04:27:12.457Z,47.20
2019-06-07T04:30:05.379Z,46.10
2019-06-07T04:32:13.275Z,45.60
2019-06-07T04:34:43.473Z,46.00
2019-06-07T04:37:14.153Z,46.00
2019-06-07T04:39:45.231Z,45.40
2019-06-07T04:42:17.639Z,45.70
2019-06-07T04:44:48.719Z,46.70
2019-06-07T04:47:20.615Z,45.60
2019-06-07T04:49:50.936Z,45.40
2019-06-07T04:52:20.484Z,45.30
2019-06-07T04:54:50.099Z,45.60
2019-06-07T04:57:19.646Z,45.30
2019-06-07T05:00:33.755Z,44.50
2019-06-07T05:02:20.630Z,44.50
2019-06-07T05:04:50.500Z,44.20
2019-06-07T05:07:20.047Z,43.50
2019-06-07T05:09:49.678Z,43.30
2019-06-07T05:12:19.253Z,42.30
2019-06-07T05:14:49.164Z,41.70
2019-06-07T05:17:18.695Z,41.00
2019-06-07T05:19:48.600Z,41.30
2019-06-07T05:22:18.171Z,40.60
2019-06-07T05:24:47.732Z,40.30
2019-06-07T05:27:17.313Z,39.50
2019-06-07T05:30:09.020Z,39.00
2019-06-07T05:32:18.646Z,38.80
2019-06-07T05:34:48.250Z,38.70
2019-06-07T05:37:17.788Z,38.80
2019-06-07T05:39:47.840Z,38.70
2019-06-07T05:42:17.707Z,37.50
2019-06-07T05:44:47.524Z,36.60
2019-06-07T05:47:17.128Z,36.10
2019-06-07T05:49:47.392Z,36.60
2019-06-07T05:52:17.153Z,35.80
2019-06-07T05:54:47.113Z,35.60
2019-06-07T05:57:16.820Z,36.00
2019-06-07T05:59:47.557Z,35.70
2019-06-07T06:02:22.616Z,35.20
2019-06-07T06:04:49.404Z,34.00
2019-06-07T06:07:19.135Z,34.30
2019-06-07T06:09:48.978Z,34.40
2019-06-07T06:12:34.210Z,33.90
2019-06-07T06:14:49.862Z,33.00
2019-06-07T06:17:19.444Z,32.10
2019-06-07T06:19:52.936Z,30.70
2019-06-07T06:22:20.548Z,30.30
2019-06-07T06:25:30.070Z,28.40
2019-06-07T06:28:02.724Z,27.60
2019-06-07T06:29:52.723Z,27.10
2019-06-07T06:34:55.943Z,25.10
2019-06-07T06:37:25.174Z,25.20
2019-06-07T06:39:54.693Z,24.90
2019-06-07T06:42:24.290Z,24.40
2019-06-07T06:44:54.284Z,23.30
2019-06-07T06:47:24.548Z,23.70
2019-06-07T06:49:54.617Z,23.20
2019-06-07T06:52:24.520Z,22.90
2019-06-07T06:55:00.421Z,21.80
2019-06-07T06:57:25.606Z,21.30
2019-06-07T06:59:55.146Z,19.50
2019-06-07T07:02:25.003Z,18.70
2019-06-07T07:04:54.789Z,19.30
2019-06-07T07:07:26.605Z,17.70
2019-06-07T07:09:59.507Z,17.20
2019-06-07T07:12:29.193Z,17.80
2019-06-07T07:14:59.013Z,17.20
2019-06-07T07:17:47.804Z,16.90
2019-06-07T07:19:59.832Z,17.30
2019-06-07T07:22:29.377Z,17.20
2019-06-07T07:24:59.222Z,15.80
2019-06-07T07:27:28.758Z,15.50
2019-06-07T07:30:34.978Z,14.60
2019-06-07T07:32:29.763Z,14.30
2019-06-07T07:35:00.676Z,13.90
2019-06-07T07:37:30.700Z,13.90
2019-06-07T07:40:09.525Z,13.30
2019-06-07T07:42:31.801Z,13.50
2019-06-07T07:45:01.677Z,13.40
2019-06-07T07:47:31.235Z,13.10
2019-06-07T07:50:00.866Z,13.20
2019-06-07T07:52:30.392Z,13.50
2019-06-07T07:54:59.977Z,14.20
2019-06-07T07:57:29.893Z,14.60
2019-06-07T08:00:25.571Z,15.10
2019-06-07T08:02:31.147Z,15.10
2019-06-07T08:07:32.375Z,14.30
2019-06-07T08:10:04.255Z,14.50
2019-06-07T08:12:55.859Z,14.60
2019-06-07T08:15:05.076Z,14.70
2019-06-07T08:17:34.678Z,14.90
2019-06-07T08:20:04.642Z,14.70
2019-06-07T08:22:34.504Z,15.00
2019-06-07T08:25:04.621Z,15.20
2019-06-07T08:27:34.311Z,15.00
2019-06-07T08:30:35.164Z,14.70
2019-06-07T08:32:35.544Z,14.80
2019-06-07T08:35:06.873Z,14.40
2019-06-07T08:38:14.980Z,14.40
2019-06-07T08:40:09.301Z,15.20
2019-06-07T08:42:59.466Z,15.40
2019-06-07T08:45:11.653Z,14.60
2019-06-07T08:47:41.254Z,14.30
2019-06-07T08:50:11.922Z,13.50
2019-06-07T08:52:41.444Z,12.60
2019-06-07T08:55:11.748Z,12.80
2019-06-07T08:57:41.337Z,12.70
2019-06-07T09:00:43.294Z,13.20
2019-06-07T09:02:43.991Z,12.60
2019-06-07T09:05:14.390Z,12.90
2019-06-07T09:07:43.983Z,12.50
2019-06-07T09:10:15.473Z,12.80
2019-06-07T09:12:45.262Z,12.70
2019-06-07T09:15:23.538Z,12.70
2019-06-07T09:18:30.512Z,12.60
2019-06-07T09:20:35.783Z,12.70
2019-06-07T09:22:49.981Z,12.70
2019-06-07T09:25:21.535Z,13.50
2019-06-07T09:27:51.544Z,12.60
2019-06-07T09:30:38.444Z,13.10
2019-06-07T09:33:09.104Z,12.60
2019-06-07T09:35:39.653Z,12.40
2019-06-07T09:38:23.261Z,12.20
2019-06-07T09:40:41.243Z,12.40
2019-06-07T09:45:42.321Z,11.70
2019-06-07T09:48:15.941Z,11.60
2019-06-07T09:50:43.493Z,12.20
2019-06-07T09:53:21.689Z,12.00
2019-06-07T09:55:44.712Z,11.20
2019-06-07T10:00:45.605Z,11.20
2019-06-07T10:03:21.005Z,10.60
2019-06-07T10:05:46.928Z,10.60
2019-06-07T10:09:31.474Z,11.30
2019-06-07T10:10:47.756Z,10.70
2019-06-07T10:13:17.436Z,10.10
2019-06-07T10:15:47.034Z,10.70
2019-06-07T10:18:16.876Z,10.20
2019-06-07T10:20:46.579Z,10.40
2019-06-07T10:23:16.142Z,9.70
2019-06-07T10:25:45.735Z,9.40
2019-06-07T10:28:15.270Z,9.10
2019-06-07T10:30:44.881Z,8.20
2019-06-07T10:33:14.673Z,8.20
2019-06-07T10:35:44.547Z,8.00
2019-06-07T10:38:14.062Z,8.30
2019-06-07T10:40:43.689Z,8.90
2019-06-07T10:43:14.589Z,8.30
2019-06-07T10:45:44.246Z,8.40
2019-06-07T10:48:14.085Z,8.20
2019-06-07T10:50:44.770Z,8.30
2019-06-07T10:53:14.431Z,8.00
2019-06-07T10:55:44.253Z,8.30
2019-06-07T10:58:14.412Z,8.40
2019-06-07T11:00:44.066Z,8.60
2019-06-07T11:03:14.343Z,8.00
2019-06-07T11:05:43.958Z,7.70
2019-06-07T11:08:15.018Z,7.60
2019-06-07T11:10:44.950Z,7.70
2019-06-07T11:13:14.790Z,7.50
2019-06-07T11:15:44.491Z,7.30
2019-06-07T11:18:14.507Z,7.20
2019-06-07T11:20:44.515Z,6.90
2019-06-07T11:23:14.414Z,6.80
2019-06-07T11:25:43.894Z,6.70
2019-06-07T11:28:14.669Z,6.50
2019-06-07T11:30:44.612Z,5.40
2019-06-07T11:33:16.360Z,5.40
2019-06-07T11:35:45.905Z,5.40
2019-06-07T11:38:15.452Z,5.60
2019-06-07T11:40:45.095Z,5.50
2019-06-07T11:43:14.946Z,5.50
2019-06-07T11:45:44.904Z,5.50
2019-06-07T11:48:15.525Z,5.50
2019-06-07T11:50:45.252Z,4.70
2019-06-07T11:53:14.819Z,5.00
2019-06-07T11:55:44.418Z,4.80
2019-06-07T11:58:18.435Z,4.60
2019-06-07T12:00:45.739Z,3.30
2019-06-07T12:03:15.853Z,4.00
2019-06-07T12:05:46.111Z,4.10
2019-06-07T12:08:16.085Z,4.50
2019-06-07T12:10:45.729Z,4.40
2019-06-07T12:13:15.580Z,3.90
2019-06-07T12:15:48.991Z,3.50
2019-06-07T12:18:17.380Z,4.20
2019-06-07T12:20:47.060Z,2.90
2019-06-07T12:23:18.062Z,3.60
2019-06-07T12:25:47.753Z,3.70
2019-06-07T12:28:18.738Z,3.00
2019-06-07T12:30:48.874Z,2.90
2019-06-07T12:33:19.663Z,3.20
2019-06-07T12:35:49.901Z,3.70
2019-06-07T12:38:21.043Z,3.70
2019-06-07T12:40:57.598Z,3.60
2019-06-07T12:43:23.341Z,3.20
2019-06-07T12:45:53.421Z,3.20
2019-06-07T12:48:25.971Z,3.40
2019-06-07T12:50:55.551Z,3.70
2019-06-07T12:53:28.097Z,4.50
2019-06-07T12:55:59.393Z,3.70
2019-06-07T12:58:34.684Z,3.00
2019-06-07T13:00:59.774Z,3.20
2019-06-07T13:03:29.553Z,3.00
2019-06-07T13:05:59.402Z,3.60
2019-06-07T13:08:29.007Z,3.30
2019-06-07T13:11:14.027Z,3.90
2019-06-07T13:13:29.798Z,3.60
2019-06-07T13:15:59.328Z,2.70
2019-06-07T13:18:29.176Z,2.60
2019-06-07T13:20:59.045Z,2.50
2019-06-07T13:23:29.085Z,1.80
2019-06-07T13:25:59.042Z,1.10
2019-06-07T13:28:29.116Z,1.60
2019-06-07T13:30:58.944Z,1.90
2019-06-07T13:33:35.451Z,2.20
2019-06-07T13:35:59.950Z,3.20
2019-06-07T13:38:29.503Z,3.20
2019-06-07T13:40:59.361Z,3.60
2019-06-07T13:43:28.892Z,3.60
2019-06-07T13:45:58.503Z,2.10
2019-06-07T13:48:28.305Z,2.30
2019-06-07T13:50:58.449Z,1.30
2019-06-07T13:53:29.071Z,1.00
2019-06-07T13:55:59.079Z,1.00
2019-06-07T13:58:28.822Z,1.00
2019-06-07T14:00:58.708Z,1.00
2019-06-07T14:03:32.870Z,1.00
2019-06-07T14:05:59.827Z,1.00
2019-06-07T14:08:29.826Z,1.00
2019-06-07T14:10:59.472Z,1.00
2019-06-07T14:13:30.414Z,1.00
2019-06-07T14:16:00.074Z,1.00
2019-06-07T14:18:30.583Z,1.00
2019-06-07T14:21:00.394Z,1.00
2019-06-07T14:23:46.177Z,1.00
2019-06-07T14:26:01.177Z,1.00
2019-06-07T14:28:34.046Z,1.00
2019-06-07T14:31:02.432Z,1.00
2019-06-07T14:33:33.456Z,1.00
2019-06-07T14:36:03.971Z,1.00
2019-06-07T14:38:37.236Z,1.00
2019-06-07T14:41:04.787Z,1.00
2019-06-07T14:43:34.671Z,1.00
2019-06-07T14:46:04.483Z,1.00
2019-06-07T14:48:34.615Z,1.00
2019-06-07T14:51:04.109Z,1.00
2019-06-07T14:53:34.983Z,1.00
2019-06-07T14:56:04.832Z,1.00
2019-06-07T14:58:39.973Z,1.00
2019-06-07T15:01:05.706Z,1.00
2019-06-07T15:03:35.528Z,1.00
2019-06-07T15:06:05.358Z,1.00
2019-06-07T15:08:35.206Z,1.00
2019-06-07T15:11:04.744Z,1.00
2019-06-07T15:13:35.760Z,1.00
2019-06-07T15:16:05.697Z,1.00
2019-06-07T15:18:36.201Z,1.00
2019-06-07T15:21:05.894Z,1.00
2019-06-07T15:23:35.837Z,1.00
2019-06-07T15:26:05.749Z,1.00
2019-06-07T15:28:36.639Z,1.00
2019-06-07T15:31:06.830Z,1.00
2019-06-07T15:33:36.595Z,1.00
2019-06-07T15:36:06.535Z,1.00
2019-06-07T15:38:37.158Z,1.00
2019-06-07T15:41:06.868Z,1.00
2019-06-07T15:43:37.451Z,1.00
2019-06-07T15:46:07.331Z,1.00
2019-06-07T15:48:38.292Z,1.00
2019-06-07T15:51:08.461Z,1.00
2019-06-07T15:53:44.038Z,1.00
2019-06-07T15:56:09.481Z,1.00
2019-06-07T15:58:39.385Z,1.00
2019-06-07T16:01:09.079Z,1.00
2019-06-07T16:03:39.847Z,1.00
2019-06-07T16:06:10.020Z,1.00
2019-06-07T16:08:40.499Z,1.00
2019-06-07T16:11:10.200Z,1.00
2019-06-07T16:13:40.824Z,1.00
2019-06-07T16:16:10.496Z,1.00
2019-06-07T16:18:41.497Z,1.20
2019-06-07T16:21:11.475Z,1.30
2019-06-07T16:23:42.092Z,1.20
2019-06-07T16:26:12.614Z,1.30
2019-06-07T16:28:42.527Z,1.70
2019-06-07T16:31:12.372Z,1.50
2019-06-07T16:33:43.057Z,1.60
2019-06-07T16:36:13.243Z,1.70
2019-06-07T16:38:44.343Z,1.70
2019-06-07T16:41:13.916Z,1.80
2019-06-07T16:43:44.674Z,1.90
2019-06-07T16:46:14.321Z,2.00
2019-06-07T16:48:45.083Z,1.60
2019-06-07T16:51:14.718Z,1.70
2019-06-07T16:53:44.655Z,1.40
2019-06-07T16:56:14.256Z,1.40
2019-06-07T16:58:44.398Z,1.40
2019-06-07T17:01:14.187Z,1.40
2019-06-07T17:03:44.032Z,1.40
2019-06-07T17:06:13.954Z,1.60
2019-06-07T17:08:44.326Z,1.60
2019-06-07T17:11:13.943Z,1.80
2019-06-07T17:13:44.433Z,2.20
2019-06-07T17:16:14.079Z,1.80
2019-06-07T17:18:45.100Z,1.70
2019-06-07T17:21:14.801Z,1.70
2019-06-07T17:23:45.355Z,1.50
2019-06-07T17:26:14.958Z,1.50
2019-06-07T17:28:45.702Z,1.50
2019-06-07T17:31:15.641Z,1.70
2019-06-07T17:33:46.037Z,1.80
2019-06-07T17:36:15.615Z,2.30
2019-06-07T17:38:46.453Z,2.60
2019-06-07T17:41:16.713Z,3.30
2019-06-07T17:43:55.699Z,3.70
2019-06-07T17:46:18.010Z,4.40
2019-06-07T17:48:47.836Z,4.70
2019-06-07T17:51:17.647Z,5.30
2019-06-07T17:53:47.833Z,6.40
2019-06-07T17:56:17.455Z,6.60
2019-06-07T17:58:46.983Z,7.50
2019-06-07T18:01:16.771Z,8.10
2019-06-07T18:03:47.066Z,7.50
2019-06-07T18:06:18.020Z,11.40
2019-06-07T18:08:49.457Z,11.00
2019-06-07T18:11:19.046Z,10.60
2019-06-07T18:14:05.117Z,9.40
2019-06-07T18:16:20.072Z,8.50
2019-06-07T18:18:50.645Z,10.70
2019-06-07T18:21:20.389Z,10.80
2019-06-07T18:23:50.506Z,14.30
2019-06-07T18:26:20.592Z,18.70
2019-06-07T18:28:50.609Z,24.20
2019-06-07T18:31:20.484Z,31.30
2019-06-07T18:33:50.912Z,38.00
2019-06-07T18:36:20.777Z,42.80
2019-06-07T18:38:50.922Z,53.10
2019-06-07T18:41:20.743Z,62.10
2019-06-07T18:43:51.123Z,64.80
2019-06-07T18:46:20.775Z,69.80
2019-06-07T18:48:50.917Z,71.50
2019-06-07T18:51:20.480Z,73.60
2019-06-07T18:53:51.546Z,74.90
2019-06-07T18:56:21.415Z,74.20
2019-06-07T18:58:51.112Z,77.10
2019-06-07T19:01:20.788Z,74.90
2019-06-07T19:03:52.015Z,67.50
2019-06-07T19:06:21.747Z,65.30
2019-06-07T19:08:55.089Z,65.60
2019-06-07T19:11:23.328Z,63.00
2019-06-07T19:13:53.025Z,60.90
2019-06-07T19:16:22.690Z,60.60
2019-06-07T19:18:52.318Z,60.00
2019-06-07T19:21:22.215Z,60.10
2019-06-07T19:23:52.042Z,59.80
2019-06-07T19:26:21.623Z,58.30
2019-06-07T19:28:52.512Z,59.30
2019-06-07T19:31:22.668Z,59.60
2019-06-07T19:33:53.124Z,58.80
2019-06-07T19:36:23.175Z,54.40
2019-06-07T19:38:53.868Z,53.70
2019-06-07T19:41:23.776Z,51.00
2019-06-07T19:43:54.116Z,51.30
2019-06-07T19:46:24.035Z,48.50
2019-06-07T19:48:54.514Z,49.90
2019-06-07T19:51:24.463Z,51.00
2019-06-07T19:53:54.973Z,51.90
2019-06-07T19:56:24.617Z,52.90
2019-06-07T19:58:55.534Z,52.10
2019-06-07T20:01:25.765Z,51.90
2019-06-07T20:03:55.948Z,51.40
2019-06-07T20:06:26.322Z,51.90
2019-06-07T20:08:56.516Z,50.30
2019-06-07T20:11:26.252Z,49.20
2019-06-07T20:13:56.480Z,47.60
2019-06-07T20:16:26.288Z,47.30
2019-06-07T20:18:56.498Z,45.30
2019-06-07T20:21:26.013Z,44.80
2019-06-07T20:23:56.734Z,46.20
2019-06-07T20:26:26.724Z,45.30
2019-06-07T20:28:57.130Z,44.30
2019-06-07T20:31:27.072Z,43.40
2019-06-07T20:33:56.931Z,44.20
2019-06-07T20:36:26.719Z,42.40
2019-06-07T20:38:57.873Z,40.60
2019-06-07T20:41:28.079Z,39.10
2019-06-07T20:43:57.724Z,38.70
2019-06-07T20:46:27.590Z,37.90
2019-06-07T20:48:58.107Z,37.90
2019-06-07T20:51:27.805Z,39.00
2019-06-07T20:53:58.504Z,37.70
2019-06-07T20:56:28.117Z,36.70
2019-06-07T20:58:58.506Z,37.50
2019-06-07T21:01:28.402Z,36.70
2019-06-07T21:03:58.985Z,36.60
2019-06-07T21:06:29.446Z,38.60
2019-06-07T21:08:59.314Z,39.70
2019-06-07T21:11:29.235Z,39.40
2019-06-07T21:13:59.926Z,37.00
2019-06-07T21:16:29.756Z,39.80
2019-06-07T21:19:00.103Z,41.90
2019-06-07T21:21:29.972Z,43.20
2019-06-07T21:24:00.492Z,44.70
2019-06-07T21:26:30.598Z,44.20
2019-06-07T21:29:01.365Z,43.10
2019-06-07T21:31:31.748Z,41.90
2019-06-07T21:34:01.594Z,40.60
2019-06-07T21:36:31.391Z,39.20
2019-06-07T21:39:01.994Z,39.30
2019-06-07T21:41:32.106Z,40.20
2019-06-07T21:44:02.390Z,40.10
2019-06-07T21:46:32.218Z,37.70
2019-06-07T21:49:02.342Z,39.50
2019-06-07T21:51:31.885Z,40.80
2019-06-07T21:54:02.504Z,40.20
2019-06-07T21:56:33.001Z,39.30
2019-06-07T21:59:02.935Z,39.90
2019-06-07T22:01:33.150Z,40.70
2019-06-07T22:04:03.461Z,40.30
2019-06-07T22:06:33.187Z,39.50
2019-06-07T22:09:03.804Z,36.40
2019-06-07T22:11:33.771Z,36.30
2019-06-07T22:14:04.142Z,36.10
2019-06-07T22:16:34.264Z,33.40
2019-06-07T22:19:04.545Z,30.40
2019-06-07T22:21:34.275Z,29.20
2019-06-07T22:24:04.806Z,27.80
2019-06-07T22:26:34.578Z,28.10
2019-06-07T22:29:04.175Z,27.80
2019-06-07T22:31:34.089Z,27.00
2019-06-07T22:34:04.203Z,26.30
2019-06-07T22:36:34.008Z,26.80
2019-06-07T22:39:04.327Z,27.00
2019-06-07T22:41:33.936Z,26.90
2019-06-07T22:44:03.603Z,26.90
2019-06-07T22:46:37.317Z,26.80
2019-06-07T22:49:04.940Z,25.60
2019-06-07T22:51:34.819Z,25.80
2019-06-07T22:54:04.707Z,25.40
2019-06-07T22:56:45.733Z,24.70
2019-06-07T22:59:18.399Z,23.80
2019-06-07T23:01:46.490Z,24.40
2019-06-07T23:04:16.716Z,23.90
2019-06-07T23:06:46.810Z,23.80
2019-06-07T23:09:17.146Z,24.50
2019-06-07T23:11:46.759Z,24.30
2019-06-07T23:14:17.428Z,23.70
2019-06-07T23:16:55.276Z,24.00
2019-06-07T23:19:18.368Z,23.80
2019-06-07T23:21:48.186Z,23.40
2019-06-07T23:24:20.153Z,22.30
2019-06-07T23:26:49.591Z,23.40
2019-06-07T23:29:19.155Z,22.90
2019-06-07T23:31:48.761Z,21.90
2019-06-07T23:34:18.819Z,21.60
2019-06-07T23:36:48.932Z,21.40
2019-06-07T23:39:20.444Z,21.90
2019-06-07T23:41:50.546Z,22.20
2019-06-07T23:44:21.469Z,21.70
2019-06-07T23:46:51.565Z,22.20
2019-06-07T23:49:22.586Z,22.60
2019-06-07T23:51:52.296Z,23.20
2019-06-07T23:54:22.196Z,23.50
2019-06-07T23:56:52.291Z,24.00
2019-06-07T23:59:22.460Z,24.20
